Time;durP1;ratioP1;P1;durP2;ratioP2;P2;SDS_P1;SDS_P2;PMS_P1;PMS_P2;Temp;Humidity;BMP_temperature;BMP_pressure;BME280_temperature;BME280_humidity;BME280_pressure;Samples;Min_cycle;Max_cycle;Signal;HPM_P1;HPM_P2
2022/08/21 00:01:25;;;;;;;;;;;17.00;99.90;;;;;;5029528;28;19930;-72
2022/08/21 00:03:51;;;;;;;;;;;17.00;99.90;;;;;;5029623;28;19921;-72
2022/08/21 00:06:16;;;;;;;;;;;16.90;99.90;;;;;;5029169;28;19967;-71
2022/08/21 00:08:42;;;;;;;;;;;16.90;99.90;;;;;;5029819;28;20026;-71
2022/08/21 00:11:08;;;;;;;;;;;16.90;99.90;;;;;;5028781;28;19928;-71
2022/08/21 00:13:34;;;;;;;;;;;16.80;99.90;;;;;;5029749;28;19996;-72
2022/08/21 00:16:00;;;;;;;;;;;16.80;99.90;;;;;;5029486;28;19921;-71
2022/08/21 00:18:26;;;;;;;;;;;16.80;99.90;;;;;;5030969;28;19921;-71
2022/08/21 00:20:52;;;;;;;;;;;16.70;99.90;;;;;;5033052;28;19929;-72
2022/08/21 00:23:18;;;;;;;;;;;16.70;99.90;;;;;;5033367;28;20029;-71
2022/08/21 00:25:43;;;;;;;;;;;16.70;99.90;;;;;;5033234;28;20370;-71
2022/08/21 00:28:09;;;;;;;;;;;16.70;99.90;;;;;;5033413;28;20039;-72
2022/08/21 00:30:35;;;;;;;;;;;16.70;99.90;;;;;;5032796;28;19921;-73
2022/08/21 00:33:01;;;;;;;;;;;16.60;99.90;;;;;;5033344;28;19925;-71
2022/08/21 00:35:28;;;;;;;;;;;16.60;99.90;;;;;;5033099;28;19927;-72
2022/08/21 00:37:54;;;;;;;;;;;16.50;99.90;;;;;;5033240;28;19975;-72
2022/08/21 00:40:22;;;;;;;;;;;16.60;99.90;;;;;;5033111;28;19921;-71
2022/08/21 00:42:49;;;;;;;;;;;16.50;99.90;;;;;;5033253;28;19924;-71
2022/08/21 00:45:14;;;;;;;;;;;16.50;99.90;;;;;;5032629;28;19928;-72
2022/08/21 00:47:40;;;;;;;;;;;16.50;99.90;;;;;;5033249;28;19921;-73
2022/08/21 00:50:07;;;;;;;;;;;16.50;99.90;;;;;;5032761;28;19925;-71
2022/08/21 00:52:33;;;;;;;;;;;16.50;99.90;;;;;;5032809;28;19921;-73
2022/08/21 00:54:59;;;;;;;;;;;16.40;99.90;;;;;;5032030;28;19921;-71
2022/08/21 00:57:48;;;;;;;;;;;16.40;99.90;;;;;;5030319;28;19964;-71
2022/08/21 01:00:16;;;;;;;;;;;16.30;99.90;;;;;;5012255;28;19920;-72
2022/08/21 01:02:42;;;;;;;;;;;16.30;99.90;;;;;;5032874;28;19925;-71
2022/08/21 01:05:09;;;;;;;;;;;16.30;99.90;;;;;;5032613;28;19963;-71
2022/08/21 01:07:35;;;;;;;;;;;16.30;99.90;;;;;;5032780;28;19924;-71
2022/08/21 01:10:00;;;;;;;;;;;16.30;99.90;;;;;;5032283;28;19940;-71
2022/08/21 01:12:26;;;;;;;;;;;16.30;99.90;;;;;;5031660;28;20012;-71
2022/08/21 01:14:52;;;;;;;;;;;16.20;99.90;;;;;;5031259;28;19931;-72
2022/08/21 01:17:19;;;;;;;;;;;16.20;99.90;;;;;;5031481;28;19976;-71
2022/08/21 01:19:44;;;;;;;;;;;16.20;99.90;;;;;;5031270;28;20306;-71
2022/08/21 01:22:10;;;;;;;;;;;16.20;99.90;;;;;;5030797;28;20011;-72
2022/08/21 01:24:35;;;;;;;;;;;16.10;99.90;;;;;;5031382;28;19927;-71
2022/08/21 01:27:01;;;;;;;;;;;16.10;99.90;;;;;;5031306;28;20338;-71
2022/08/21 01:29:27;;;;;;;;;;;16.10;99.90;;;;;;5030877;28;20390;-71
2022/08/21 01:31:52;;;;;;;;;;;16.10;99.90;;;;;;5031207;28;19931;-71
2022/08/21 01:34:19;;;;;;;;;;;16.10;99.90;;;;;;5031182;28;20311;-71
2022/08/21 01:36:45;;;;;;;;;;;16.10;99.90;;;;;;5030647;28;19982;-71
2022/08/21 01:39:11;;;;;;;;;;;16.00;99.90;;;;;;5030918;28;19921;-71
2022/08/21 01:41:37;;;;;;;;;;;16.00;99.90;;;;;;5031143;28;19928;-71
2022/08/21 01:44:03;;;;;;;;;;;16.00;99.90;;;;;;5031050;28;19925;-72
2022/08/21 01:46:28;;;;;;;;;;;16.00;99.90;;;;;;5030755;28;19925;-71
2022/08/21 01:48:54;;;;;;;;;;;15.90;99.90;;;;;;5030693;28;19920;-71
2022/08/21 01:51:20;;;;;;;;;;;15.90;99.90;;;;;;5031008;28;19921;-71
2022/08/21 01:53:45;;;;;;;;;;;15.90;99.90;;;;;;5030690;28;19921;-71
2022/08/21 01:56:12;;;;;;;;;;;15.90;99.90;;;;;;5030498;28;19921;-71
2022/08/21 01:58:37;;;;;;;;;;;15.80;99.90;;;;;;5029417;28;20446;-72
2022/08/21 02:01:03;;;;;;;;;;;15.80;99.90;;;;;;5030942;28;19928;-71
2022/08/21 02:03:29;;;;;;;;;;;15.80;99.90;;;;;;5029773;28;20004;-71
2022/08/21 02:05:55;;;;;;;;;;;15.80;99.90;;;;;;5030516;28;19968;-71
2022/08/21 02:08:23;;;;;;;;;;;15.80;99.90;;;;;;5030551;28;20719;-71
2022/08/21 02:10:49;;;;;;;;;;;15.70;99.90;;;;;;4992782;28;1072639;-71
2022/08/21 02:13:16;;;;;;;;;;;15.70;99.90;;;;;;5029828;28;19939;-72
2022/08/21 02:15:43;;;;;;;;;;;15.70;99.90;;;;;;5030435;28;19947;-71
2022/08/21 02:18:08;;;;;;;;;;;15.70;99.90;;;;;;5030691;28;19928;-72
2022/08/21 02:20:35;;;;;;;;;;;15.60;99.90;;;;;;5029925;28;19925;-71
2022/08/21 02:23:01;;;;;;;;;;;15.70;99.90;;;;;;5030898;28;19925;-72
2022/08/21 02:25:27;;;;;;;;;;;15.60;99.90;;;;;;5030468;28;19932;-71
2022/08/21 02:27:53;;;;;;;;;;;15.60;99.90;;;;;;5030545;28;20016;-71
2022/08/21 02:30:39;;;;;;;;;;;15.60;99.90;;;;;;5030928;28;19921;-71
2022/08/21 02:33:05;;;;;;;;;;;15.50;99.90;;;;;;5030177;28;19968;-73
2022/08/21 02:35:30;;;;;;;;;;;15.50;99.90;;;;;;5030583;28;20026;-71
2022/08/21 02:37:58;;;;;;;;;;;15.50;99.90;;;;;;5030245;28;20013;-71
2022/08/21 02:40:26;;;;;;;;;;;15.50;99.90;;;;;;5030159;28;20015;-71
2022/08/21 02:42:51;;;;;;;;;;;15.40;99.90;;;;;;5029317;28;19925;-70
2022/08/21 02:45:18;;;;;;;;;;;15.50;99.90;;;;;;5030585;28;20346;-71
2022/08/21 02:47:47;;;;;;;;;;;15.40;99.90;;;;;;5030308;28;19921;-71
2022/08/21 02:50:13;;;;;;;;;;;15.40;99.90;;;;;;5029739;28;19979;-71
2022/08/21 02:52:38;;;;;;;;;;;15.50;99.90;;;;;;5030211;28;20382;-71
2022/08/21 02:55:04;;;;;;;;;;;15.40;99.90;;;;;;5030224;28;19921;-71
2022/08/21 02:57:32;;;;;;;;;;;15.40;99.90;;;;;;5029679;28;20451;-71
2022/08/21 02:59:57;;;;;;;;;;;15.40;99.90;;;;;;5029780;28;20355;-72
2022/08/21 03:02:23;;;;;;;;;;;15.40;99.90;;;;;;5030120;28;19921;-71
2022/08/21 03:04:48;;;;;;;;;;;15.30;99.90;;;;;;5029487;28;19931;-71
2022/08/21 03:07:15;;;;;;;;;;;15.40;99.90;;;;;;5030231;28;19929;-73
2022/08/21 03:09:40;;;;;;;;;;;15.30;99.90;;;;;;5029873;28;19945;-71
2022/08/21 03:12:06;;;;;;;;;;;15.30;99.90;;;;;;5029341;28;19929;-71
2022/08/21 03:14:31;;;;;;;;;;;15.30;99.90;;;;;;5029849;28;19921;-71
2022/08/21 03:16:57;;;;;;;;;;;15.30;99.90;;;;;;5029846;28;19921;-71
2022/08/21 03:19:22;;;;;;;;;;;15.30;99.90;;;;;;5029776;28;19921;-71
2022/08/21 03:21:48;;;;;;;;;;;15.20;99.90;;;;;;5029256;28;20272;-71
2022/08/21 03:24:13;;;;;;;;;;;15.20;99.90;;;;;;5029625;28;20330;-71
2022/08/21 03:26:39;;;;;;;;;;;15.20;99.90;;;;;;5029721;28;19924;-71
2022/08/21 03:29:05;;;;;;;;;;;15.20;99.90;;;;;;5029465;28;19925;-71
2022/08/21 03:31:31;;;;;;;;;;;15.20;99.90;;;;;;5029274;28;20434;-71
2022/08/21 03:33:57;;;;;;;;;;;15.10;99.90;;;;;;5029488;28;20076;-71
2022/08/21 03:36:23;;;;;;;;;;;15.10;99.90;;;;;;5029345;28;19927;-71
2022/08/21 03:38:48;;;;;;;;;;;15.10;99.90;;;;;;5028624;28;19924;-72
2022/08/21 03:41:14;;;;;;;;;;;15.10;99.90;;;;;;5029517;28;19964;-71
2022/08/21 03:43:39;;;;;;;;;;;15.10;99.90;;;;;;5029306;28;19921;-71
2022/08/21 03:46:05;;;;;;;;;;;15.10;99.90;;;;;;5029389;28;19921;-72
2022/08/21 03:48:32;;;;;;;;;;;15.00;99.90;;;;;;5029036;28;20367;-71
2022/08/21 03:50:58;;;;;;;;;;;15.00;99.90;;;;;;5029372;28;19921;-72
2022/08/21 03:53:24;;;;;;;;;;;15.00;99.90;;;;;;5028699;28;19921;-71
2022/08/21 03:55:52;;;;;;;;;;;15.00;99.90;;;;;;5029208;28;20287;-71
2022/08/21 03:58:20;;;;;;;;;;;15.00;99.90;;;;;;5028948;28;19925;-71
2022/08/21 04:00:47;;;;;;;;;;;15.00;99.90;;;;;;5029349;28;20380;-71
2022/08/21 04:03:12;;;;;;;;;;;15.00;99.90;;;;;;5028556;28;19983;-71
2022/08/21 04:05:38;;;;;;;;;;;15.00;99.90;;;;;;5029025;28;19972;-71
2022/08/21 04:08:04;;;;;;;;;;;14.90;99.90;;;;;;5029019;28;19925;-71
2022/08/21 04:10:31;;;;;;;;;;;14.90;99.90;;;;;;5029103;28;20016;-71
2022/08/21 04:12:57;;;;;;;;;;;14.90;99.90;;;;;;5027800;28;20243;-71
2022/08/21 04:15:23;;;;;;;;;;;14.90;99.90;;;;;;5029019;28;20306;-72
2022/08/21 04:17:49;;;;;;;;;;;14.90;99.90;;;;;;5028527;28;20440;-71
2022/08/21 04:20:15;;;;;;;;;;;14.90;99.90;;;;;;5029242;28;20012;-71
2022/08/21 04:22:41;;;;;;;;;;;14.90;99.90;;;;;;5028595;28;20074;-71
2022/08/21 04:25:07;;;;;;;;;;;14.80;99.90;;;;;;5028649;28;20027;-71
2022/08/21 04:27:33;;;;;;;;;;;14.80;99.90;;;;;;5028848;28;19921;-71
2022/08/21 04:29:59;;;;;;;;;;;14.80;99.90;;;;;;5029131;28;19944;-71
2022/08/21 04:32:25;;;;;;;;;;;14.80;99.90;;;;;;5028827;28;19921;-71
2022/08/21 04:34:57;;;;;;;;;;;14.80;99.90;;;;;;5028534;28;19928;-71
2022/08/21 04:37:22;;;;;;;;;;;14.80;99.90;;;;;;5028233;28;19921;-71
2022/08/21 04:39:48;;;;;;;;;;;14.90;99.90;;;;;;5028230;28;19921;-71
2022/08/21 04:42:14;;;;;;;;;;;14.80;99.90;;;;;;5028622;28;20291;-71
2022/08/21 04:44:40;;;;;;;;;;;14.80;99.90;;;;;;5028817;28;19924;-72
2022/08/21 04:47:06;;;;;;;;;;;14.80;99.90;;;;;;5028624;28;20007;-71
2022/08/21 04:49:32;;;;;;;;;;;14.80;99.90;;;;;;5026924;28;20007;-71
2022/08/21 04:51:58;;;;;;;;;;;14.80;99.90;;;;;;5027560;28;19925;-71
2022/08/21 04:54:24;;;;;;;;;;;14.90;99.90;;;;;;5028658;28;19928;-71
2022/08/21 04:56:52;;;;;;;;;;;14.90;99.90;;;;;;5028675;28;19933;-71
2022/08/21 04:59:20;;;;;;;;;;;14.90;99.90;;;;;;5028704;28;20023;-71
2022/08/21 05:01:46;;;;;;;;;;;14.90;99.90;;;;;;5028544;28;19927;-71
2022/08/21 05:04:14;;;;;;;;;;;15.00;99.90;;;;;;5029016;28;19921;-71
2022/08/21 05:06:41;;;;;;;;;;;15.00;99.90;;;;;;5032097;28;20028;-71
2022/08/21 05:09:09;;;;;;;;;;;15.00;99.90;;;;;;5032311;28;19928;-72
2022/08/21 05:11:34;;;;;;;;;;;15.10;99.90;;;;;;5032053;28;19924;-71
2022/08/21 05:14:00;;;;;;;;;;;15.10;99.90;;;;;;5032040;28;20007;-71
2022/08/21 05:16:26;;;;;;;;;;;15.20;99.90;;;;;;5031636;28;19932;-71
2022/08/21 05:18:52;;;;;;;;;;;15.20;99.90;;;;;;5032212;28;19947;-71
2022/08/21 05:21:17;;;;;;;;;;;15.20;99.90;;;;;;5031793;28;19921;-71
2022/08/21 05:23:43;;;;;;;;;;;15.30;99.90;;;;;;5031924;28;19925;-71
2022/08/21 05:26:08;;;;;;;;;;;15.30;99.90;;;;;;5031380;28;19928;-71
2022/08/21 05:28:34;;;;;;;;;;;15.40;99.90;;;;;;5032029;28;19969;-71
2022/08/21 05:30:59;;;;;;;;;;;15.40;99.90;;;;;;5031759;28;19944;-71
2022/08/21 05:33:25;;;;;;;;;;;15.50;99.90;;;;;;5031693;28;19921;-71
2022/08/21 05:35:51;;;;;;;;;;;15.50;99.90;;;;;;5031632;28;19921;-71
2022/08/21 05:38:17;;;;;;;;;;;15.60;99.90;;;;;;5031714;28;20291;-71
2022/08/21 05:40:43;;;;;;;;;;;15.70;99.90;;;;;;5031088;28;19921;-71
2022/08/21 05:43:09;;;;;;;;;;;15.70;99.90;;;;;;5031639;28;20452;-71
2022/08/21 05:45:34;;;;;;;;;;;15.80;99.90;;;;;;5031247;28;19925;-72
2022/08/21 05:48:14;;;;;;;;;;;15.80;99.90;;;;;;5031681;28;19921;-71
2022/08/21 05:50:39;;;;;;;;;;;15.90;99.90;;;;;;5019417;28;20402;-71
2022/08/21 05:53:06;;;;;;;;;;;15.90;99.90;;;;;;5031255;28;19921;-71
2022/08/21 05:55:31;;;;;;;;;;;16.00;99.90;;;;;;5031071;28;19921;-71
2022/08/21 05:57:57;;;;;;;;;;;16.00;99.90;;;;;;5031241;28;19940;-70
2022/08/21 06:00:22;;;;;;;;;;;16.00;99.90;;;;;;5031636;28;20315;-72
2022/08/21 06:02:49;;;;;;;;;;;16.10;99.90;;;;;;5031087;28;19921;-71
2022/08/21 06:05:15;;;;;;;;;;;16.10;99.90;;;;;;5030745;28;19921;-71
2022/08/21 06:07:41;;;;;;;;;;;16.20;99.90;;;;;;5030988;28;19921;-71
2022/08/21 06:10:07;;;;;;;;;;;16.20;99.90;;;;;;5031200;28;19974;-71
2022/08/21 06:12:32;;;;;;;;;;;16.30;99.90;;;;;;5030572;28;20338;-71
2022/08/21 06:14:58;;;;;;;;;;;16.30;99.90;;;;;;5030356;28;19921;-71
2022/08/21 06:17:23;;;;;;;;;;;16.30;99.90;;;;;;5029764;28;20388;-71
2022/08/21 06:19:52;;;;;;;;;;;16.40;99.90;;;;;;5030991;28;19943;-71
2022/08/21 06:22:18;;;;;;;;;;;16.40;99.90;;;;;;5030664;28;19932;-71
2022/08/21 06:24:43;;;;;;;;;;;16.40;99.90;;;;;;5030625;28;19921;-71
2022/08/21 06:27:09;;;;;;;;;;;16.50;99.90;;;;;;5030619;28;19948;-71
2022/08/21 06:29:36;;;;;;;;;;;16.50;99.90;;;;;;5030321;28;19925;-71
2022/08/21 06:32:02;;;;;;;;;;;16.60;99.90;;;;;;5030410;28;19921;-71
2022/08/21 06:34:27;;;;;;;;;;;16.60;99.90;;;;;;5030587;28;19983;-71
2022/08/21 06:36:53;;;;;;;;;;;16.70;99.90;;;;;;5028687;28;19921;-71
2022/08/21 06:39:19;;;;;;;;;;;16.70;99.90;;;;;;5030588;28;19921;-71
2022/08/21 06:41:44;;;;;;;;;;;16.80;99.90;;;;;;5030041;28;19995;-71
2022/08/21 06:44:10;;;;;;;;;;;16.80;99.90;;;;;;5030488;28;19925;-71
2022/08/21 06:46:35;;;;;;;;;;;16.90;99.90;;;;;;5030090;28;20015;-71
2022/08/21 06:49:01;;;;;;;;;;;16.90;99.90;;;;;;5029887;28;19928;-71
2022/08/21 06:51:27;;;;;;;;;;;17.00;99.90;;;;;;5030062;28;19920;-71
2022/08/21 06:53:52;;;;;;;;;;;17.10;99.90;;;;;;5030611;28;19921;-71
2022/08/21 06:56:18;;;;;;;;;;;17.10;99.90;;;;;;5030081;28;19925;-71
2022/08/21 06:58:43;;;;;;;;;;;17.20;99.90;;;;;;5030143;28;19920;-71
2022/08/21 07:01:09;;;;;;;;;;;17.30;99.90;;;;;;5029434;28;19925;-71
2022/08/21 07:03:36;;;;;;;;;;;17.40;99.90;;;;;;5030139;28;20379;-71
2022/08/21 07:06:02;;;;;;;;;;;17.50;99.90;;;;;;5030089;28;19921;-71
2022/08/21 07:08:28;;;;;;;;;;;17.50;99.90;;;;;;5017157;28;19964;-71
2022/08/21 07:10:55;;;;;;;;;;;17.60;99.90;;;;;;5029637;28;19972;-71
2022/08/21 07:13:20;;;;;;;;;;;17.70;99.90;;;;;;5016982;28;19921;-72
2022/08/21 07:15:46;;;;;;;;;;;17.80;99.90;;;;;;5028519;28;19928;-71
2022/08/21 07:18:12;;;;;;;;;;;17.80;99.90;;;;;;5029813;28;20264;-71
2022/08/21 07:20:39;;;;;;;;;;;17.90;99.90;;;;;;5029616;28;19975;-71
2022/08/21 07:23:07;;;;;;;;;;;18.00;99.90;;;;;;5016523;28;20062;-72
2022/08/21 07:25:32;;;;;;;;;;;18.00;99.90;;;;;;5028580;28;19992;-71
2022/08/21 07:27:58;;;;;;;;;;;18.10;99.90;;;;;;5029301;28;19921;-71
2022/08/21 07:30:24;;;;;;;;;;;18.20;99.90;;;;;;5030096;28;19921;-71
2022/08/21 07:32:49;;;;;;;;;;;18.30;99.90;;;;;;5028680;28;19921;-71
2022/08/21 07:35:16;;;;;;;;;;;18.40;99.90;;;;;;5029784;28;20012;-72
2022/08/21 07:37:41;;;;;;;;;;;18.40;99.90;;;;;;5029763;28;19990;-72
2022/08/21 07:40:07;;;;;;;;;;;18.40;99.90;;;;;;5029925;28;20438;-72
2022/08/21 07:42:33;;;;;;;;;;;18.50;99.90;;;;;;5029966;28;19921;-72
2022/08/21 07:44:58;;;;;;;;;;;18.60;99.90;;;;;;5029699;28;20322;-72
2022/08/21 07:47:24;;;;;;;;;;;18.70;99.90;;;;;;5029706;28;19921;-72
2022/08/21 07:49:49;;;;;;;;;;;18.70;99.90;;;;;;5029740;28;19921;-71
2022/08/21 07:52:15;;;;;;;;;;;18.70;99.90;;;;;;5029890;28;19928;-72
2022/08/21 07:54:40;;;;;;;;;;;18.80;99.90;;;;;;5029548;28;19927;-72
2022/08/21 07:57:06;;;;;;;;;;;18.90;99.90;;;;;;5029921;28;19932;-71
2022/08/21 07:59:31;;;;;;;;;;;18.90;99.90;;;;;;5028888;28;20269;-71
2022/08/21 08:01:57;;;;;;;;;;;19.00;99.90;;;;;;5028924;28;20307;-72
2022/08/21 08:04:22;;;;;;;;;;;19.10;99.90;;;;;;5029424;28;19921;-72
2022/08/21 08:06:48;;;;;;;;;;;19.20;99.90;;;;;;5029889;28;19925;-71
2022/08/21 08:09:13;;;;;;;;;;;19.30;99.90;;;;;;5029628;28;19925;-71
2022/08/21 08:11:41;;;;;;;;;;;19.40;99.90;;;;;;5029197;28;19924;-71
2022/08/21 08:14:06;;;;;;;;;;;19.40;99.90;;;;;;5029832;28;19928;-69
2022/08/21 08:16:32;;;;;;;;;;;19.50;99.90;;;;;;5029329;28;19928;-69
2022/08/21 08:18:57;;;;;;;;;;;19.50;99.90;;;;;;5029577;28;19921;-70
2022/08/21 08:21:23;;;;;;;;;;;19.60;99.90;;;;;;5028131;28;19921;-70
2022/08/21 08:23:49;;;;;;;;;;;19.60;99.90;;;;;;5029527;28;20287;-70
2022/08/21 08:26:15;;;;;;;;;;;19.70;99.90;;;;;;5028092;28;19925;-70
2022/08/21 08:28:41;;;;;;;;;;;19.80;99.90;;;;;;5029640;28;19921;-70
2022/08/21 08:31:07;;;;;;;;;;;19.80;99.90;;;;;;5029418;28;19921;-71
2022/08/21 08:33:33;;;;;;;;;;;20.00;99.90;;;;;;5016152;28;19928;-70
2022/08/21 08:35:58;;;;;;;;;;;20.00;99.90;;;;;;5029358;28;19921;-70
2022/08/21 08:38:24;;;;;;;;;;;20.10;99.90;;;;;;5029515;28;19921;-70
2022/08/21 08:41:09;;;;;;;;;;;20.20;99.90;;;;;;5032574;28;19930;-70
2022/08/21 08:43:35;;;;;;;;;;;20.20;99.90;;;;;;5021939;28;19931;-70
2022/08/21 08:46:03;;;;;;;;;;;20.30;99.90;;;;;;5032928;28;19936;-70
2022/08/21 08:48:37;;;;;;;;;;;20.40;99.90;;;;;;5033159;28;20007;-70
2022/08/21 08:51:06;;;;;;;;;;;20.40;99.90;;;;;;5032695;28;20376;-69
2022/08/21 08:53:32;;;;;;;;;;;20.50;99.90;;;;;;5033391;28;20385;-69
2022/08/21 08:56:00;;;;;;;;;;;20.60;99.90;;;;;;5032630;28;19929;-70
2022/08/21 08:58:30;;;;;;;;;;;20.60;99.90;;;;;;5032908;28;19921;-70
2022/08/21 09:00:56;;;;;;;;;;;20.70;99.90;;;;;;5032705;28;19920;-70
2022/08/21 09:03:22;;;;;;;;;;;20.80;99.90;;;;;;5032900;28;20285;-70
2022/08/21 09:05:54;;;;;;;;;;;20.90;99.90;;;;;;5032457;28;20008;-70
2022/08/21 09:08:20;;;;;;;;;;;21.00;99.90;;;;;;5033184;28;19928;-71
2022/08/21 09:10:45;;;;;;;;;;;21.10;99.90;;;;;;5032597;28;20311;-69
2022/08/21 09:13:11;;;;;;;;;;;21.20;99.90;;;;;;5032614;28;19921;-70
2022/08/21 09:15:43;;;;;;;;;;;21.20;99.90;;;;;;5032552;28;19928;-70
2022/08/21 09:18:09;;;;;;;;;;;21.40;99.90;;;;;;5032516;28;19999;-70
2022/08/21 09:20:40;;;;;;;;;;;21.50;99.90;;;;;;5032339;28;20016;-69
2022/08/21 09:23:19;;;;;;;;;;;21.50;99.90;;;;;;5032172;28;19925;-69
2022/08/21 09:25:50;;;;;;;;;;;21.60;99.90;;;;;;5032482;28;19921;-70
2022/08/21 09:28:16;;;;;;;;;;;22.00;99.90;;;;;;5031885;28;19921;-70
2022/08/21 09:30:41;;;;;;;;;;;22.60;99.90;;;;;;5032622;28;19928;-70
2022/08/21 09:33:09;;;;;;;;;;;23.20;99.90;;;;;;5031600;28;19929;-70
2022/08/21 09:35:36;;;;;;;;;;;23.80;99.90;;;;;;5032081;28;19924;-70
2022/08/21 09:38:07;;;;;;;;;;;24.40;99.20;;;;;;5030754;28;19924;-70
2022/08/21 09:40:35;;;;;;;;;;;24.90;97.80;;;;;;5031078;28;20391;-70
2022/08/21 09:43:03;;;;;;;;;;;25.20;97.80;;;;;;5031153;28;19965;-70
2022/08/21 09:45:29;;;;;;;;;;;25.60;97.00;;;;;;5031335;28;19921;-70
2022/08/21 09:47:55;;;;;;;;;;;25.90;96.80;;;;;;5031249;28;20299;-70
2022/08/21 09:50:25;;;;;;;;;;;26.20;96.30;;;;;;5029969;28;20311;-70
2022/08/21 09:52:55;;;;;;;;;;;26.40;95.30;;;;;;5030483;28;19921;-71
2022/08/21 09:58:09;;;;;;;;;;;26.90;95.20;;;;;;5019640;28;20383;-72
2022/08/21 10:00:35;;;;;;;;;;;27.20;93.90;;;;;;5031034;28;19979;-72
2022/08/21 10:03:07;;;;;;;;;;;27.50;94.50;;;;;;5030362;28;19921;-72
2022/08/21 10:05:33;;;;;;;;;;;27.80;93.70;;;;;;5030712;28;19944;-70
2022/08/21 10:08:00;;;;;;;;;;;28.00;92.00;;;;;;5030128;28;20334;-70
2022/08/21 10:10:28;;;;;;;;;;;27.90;91.40;;;;;;5031660;28;20281;-71
2022/08/21 10:12:53;;;;;;;;;;;27.90;91.40;;;;;;5031658;28;19972;-70
2022/08/21 10:15:31;;;;;;;;;;;28.20;92.00;;;;;;5030890;28;19968;-70
2022/08/21 10:18:06;;;;;;;;;;;28.40;91.60;;;;;;5031854;28;19971;-70
2022/08/21 10:20:40;;;;;;;;;;;28.60;91.20;;;;;;5031320;28;20012;-71
2022/08/21 10:23:45;;;;;;;5.40;1.20;;;28.80;90.70;;;;;;5030601;28;19968;-70
2022/08/21 10:26:43;;;;;;;5.22;1.27;;;29.00;91.50;;;;;;5028761;28;20732;-71
2022/08/21 10:29:24;;;;;;;7.53;1.70;;;29.20;90.30;;;;;;5020004;28;20469;-70
2022/08/21 10:31:56;;;;;;;5.70;1.10;;;29.10;89.80;;;;;;5029098;28;20427;-70
2022/08/21 10:34:36;;;;;;;5.38;1.00;;;29.10;90.10;;;;;;5028924;28;20824;-70
2022/08/21 10:37:16;;;;;;;;;;;29.40;89.00;;;;;;5018740;28;20500;-70
2022/08/21 10:40:05;;;;;;;;;;;29.50;88.10;;;;;;5029830;28;19972;-70
2022/08/21 10:42:35;;;;;;;;;;;29.60;86.60;;;;;;5031043;28;20031;-70
2022/08/21 10:45:00;;;;;;;;;;;29.60;85.90;;;;;;5016981;28;19921;-70
2022/08/21 10:47:26;;;;;;;;;;;29.30;85.00;;;;;;5031013;28;19947;-70
2022/08/21 10:49:54;;;;;;;;;;;28.90;84.80;;;;;;5030634;28;20011;-70
2022/08/21 10:52:31;;;;;;;;;;;28.50;84.50;;;;;;5030298;28;20355;-72
2022/08/21 10:55:03;;;;;;;;;;;28.30;86.00;;;;;;5030718;28;20003;-72
2022/08/21 10:57:40;;;;;;;;;;;28.70;86.80;;;;;;5030618;28;20050;-71
2022/08/21 11:00:11;;;;;;;;;;;29.20;85.80;;;;;;5030795;28;19928;-70
2022/08/21 11:02:41;;;;;;;;;;;29.70;84.80;;;;;;5029905;28;19927;-70
2022/08/21 11:05:18;;;;;;;;;;;30.10;84.20;;;;;;5030390;28;19964;-70
2022/08/21 11:07:51;;;;;;;4.95;0.88;;;30.50;82.70;;;;;;5017414;28;19943;-70
2022/08/21 11:10:23;;;;;;;6.40;1.00;;;30.60;82.50;;;;;;5028955;28;20402;-71
2022/08/21 11:12:54;;;;;;;6.68;1.25;;;30.80;82.80;;;;;;5028734;28;20427;-70
2022/08/21 11:15:30;;;;;;;6.03;1.10;;;31.20;81.50;;;;;;5028737;28;20416;-71
2022/08/21 11:18:01;;;;;;;;;;;31.40;79.50;;;;;;5030432;28;20052;-70
2022/08/21 11:20:48;;;;;;;;;;;31.30;78.70;;;;;;5029983;28;19972;-70
2022/08/21 11:23:14;;;;;;;;;;;30.90;78.50;;;;;;5030434;28;19968;-70
2022/08/21 11:25:41;;;;;;;;;;;30.10;77.30;;;;;;5030296;28;19972;-70
2022/08/21 11:28:06;;;;;;;;;;;29.40;77.90;;;;;;5030048;28;19921;-70
2022/08/21 11:30:39;;;;;;;;;;;28.90;79.00;;;;;;5029853;28;19928;-70
2022/08/21 11:33:13;;;;;;;;;;;28.40;79.70;;;;;;5030149;28;19921;-70
2022/08/21 11:35:45;;;;;;;;;;;28.10;80.20;;;;;;5030132;28;19927;-70
2022/08/21 11:38:11;;;;;;;;;;;28.60;82.20;;;;;;5029959;28;19928;-70
2022/08/21 11:40:39;;;;;;;;;;;29.20;79.90;;;;;;5029904;28;19921;-71
2022/08/21 11:43:23;;;;;;;;;;;29.60;78.90;;;;;;5029927;28;20008;-70
2022/08/21 11:45:51;;;;;;;;;;;30.00;78.30;;;;;;5029783;28;19921;-70
2022/08/21 11:48:35;;;;;;;;;;;30.40;78.70;;;;;;5029928;28;19921;-70
2022/08/21 11:51:05;;;;;;;;;;;30.60;77.70;;;;;;5030026;28;19921;-71
2022/08/21 11:53:37;;;;;;;;;;;30.40;75.80;;;;;;5029631;28;20015;-70
2022/08/21 11:56:14;;;;;;;;;;;30.10;77.00;;;;;;5029933;28;19921;-71
2022/08/21 11:58:51;;;;;;;;;;;30.30;76.80;;;;;;5029601;28;20391;-70
2022/08/21 12:01:21;;;;;;;2.70;0.90;;;30.60;76.60;;;;;;5029204;28;19928;-70
2022/08/21 12:03:57;;;;;;;;;;;30.90;75.70;;;;;;5029676;28;20048;-70
2022/08/21 12:06:36;;;;;;;3.47;0.90;;;31.40;75.30;;;;;;5028644;28;20383;-72
2022/08/21 12:09:24;;;;;;;3.60;0.85;;;31.70;73.50;;;;;;5029082;28;20442;-70
2022/08/21 12:12:11;;;;;;;;;;;32.00;72.40;;;;;;5026052;28;20424;-71
2022/08/21 12:14:47;;;;;;;;;;;32.10;70.00;;;;;;5033028;28;19920;-70
2022/08/21 12:17:21;;;;;;;;;;;32.20;68.90;;;;;;5033487;28;19921;-71
2022/08/21 12:19:57;;;;;;;;;;;32.10;66.50;;;;;;5033382;28;19928;-71
2022/08/21 12:22:37;;;;;;;5.32;0.70;;;31.90;67.20;;;;;;5033408;28;20453;-70
2022/08/21 12:25:05;;;;;;;;;;;32.00;66.90;;;;;;5033704;28;20123;-70
2022/08/21 12:28:00;;;;;;;;;;;32.10;66.40;;;;;;5033761;28;20350;-71
2022/08/21 12:30:26;;;;;;;;;;;32.00;66.10;;;;;;5020841;28;20492;-70
2022/08/21 12:33:00;;;;;;;;;;;31.60;65.90;;;;;;5033280;28;19972;-70
2022/08/21 12:35:30;;;;;;;;;;;31.00;66.70;;;;;;5033607;28;19921;-70
2022/08/21 12:38:02;;;;;;;;;;;30.60;66.90;;;;;;5033533;28;19983;-70
2022/08/21 12:40:29;;;;;;;;;;;30.30;68.30;;;;;;5033501;28;20452;-70
2022/08/21 12:42:57;;;;;;;;;;;29.80;68.30;;;;;;5032867;28;19921;-70
2022/08/21 12:45:29;;;;;;;;;;;29.30;70.50;;;;;;5033143;28;19924;-70
2022/08/21 12:48:06;;;;;;;;;;;28.80;70.40;;;;;;5033062;28;19925;-70
2022/08/21 12:50:41;;;;;;;;;;;28.40;72.00;;;;;;5032972;28;19937;-70
2022/08/21 12:53:09;;;;;;;;;;;28.10;72.70;;;;;;5032975;28;19921;-70
2022/08/21 12:55:40;;;;;;;;;;;27.80;73.70;;;;;;5033236;28;19925;-70
2022/08/21 12:58:05;;;;;;;;;;;27.60;73.70;;;;;;5020135;28;19925;-70
2022/08/21 13:00:31;;;;;;;;;;;27.40;74.30;;;;;;5032756;28;19921;-72
2022/08/21 13:02:56;;;;;;;;;;;27.30;75.00;;;;;;5033111;28;19932;-70
2022/08/21 13:05:28;;;;;;;;;;;27.20;75.50;;;;;;5032682;28;20345;-70
2022/08/21 13:07:54;;;;;;;;;;;27.10;75.80;;;;;;5032619;28;20063;-70
2022/08/21 13:10:28;;;;;;;;;;;27.00;76.00;;;;;;5032554;28;20044;-71
2022/08/21 13:12:55;;;;;;;;;;;27.20;76.00;;;;;;5032519;28;19932;-70
2022/08/21 13:15:30;;;;;;;;;;;27.60;74.80;;;;;;5032260;28;20451;-71
2022/08/21 13:18:01;;;;;;;;;;;28.00;74.10;;;;;;5031393;28;19966;-71
2022/08/21 13:20:31;;;;;;;;;;;28.10;73.90;;;;;;5032053;28;19925;-71
2022/08/21 13:22:58;;;;;;;;;;;28.10;74.40;;;;;;5032530;28;19921;-71
2022/08/21 13:25:28;;;;;;;;;;;27.90;74.10;;;;;;5031963;28;19925;-71
2022/08/21 13:28:03;;;;;;;;;;;27.80;73.40;;;;;;5031506;28;19928;-71
2022/08/21 13:30:30;;;;;;;;;;;27.60;72.90;;;;;;5032446;28;19928;-70
2022/08/21 13:32:57;;;;;;;;;;;27.40;73.20;;;;;;5032305;28;19925;-71
2022/08/21 13:35:29;;;;;;;;;;;27.10;74.40;;;;;;5032033;28;19925;-71
2022/08/21 13:37:55;;;;;;;;;;;27.00;73.30;;;;;;5032169;28;19928;-70
2022/08/21 13:40:27;;;;;;;;;;;27.00;73.40;;;;;;5032423;28;19925;-71
2022/08/21 13:42:53;;;;;;;;;;;27.70;74.00;;;;;;5030559;28;19925;-71
2022/08/21 13:45:23;;;;;;;;;;;28.70;72.10;;;;;;5032128;28;19928;-71
2022/08/21 13:47:48;;;;;;;;;;;28.90;70.70;;;;;;5031905;28;19921;-70
2022/08/21 13:50:15;;;;;;;;;;;29.20;70.50;;;;;;5031975;28;19928;-71
2022/08/21 13:52:54;;;;;;;;;;;29.80;69.20;;;;;;5032070;28;19921;-71
2022/08/21 13:55:20;;;;;;;;;;;30.40;67.90;;;;;;5031842;28;19928;-71
2022/08/21 13:57:46;;;;;;;;;;;30.80;67.40;;;;;;5032015;28;19920;-71
2022/08/21 14:00:13;;;;;;;;;;;31.10;66.40;;;;;;5030792;28;19921;-71
2022/08/21 14:02:44;;;;;;;;;;;31.00;65.80;;;;;;5030802;28;19967;-71
2022/08/21 14:05:20;;;;;;;;;;;31.00;66.40;;;;;;5031637;28;19921;-71
2022/08/21 14:07:47;;;;;;;;;;;30.50;67.10;;;;;;5019173;28;20346;-71
2022/08/21 14:10:14;;;;;;;;;;;29.80;68.20;;;;;;5031449;28;20030;-71
2022/08/21 14:12:48;;;;;;;;;;;29.20;70.20;;;;;;5031489;28;20284;-71
2022/08/21 14:15:15;;;;;;;;;;;28.70;71.10;;;;;;5031572;28;19921;-71
2022/08/21 14:17:41;;;;;;;;;;;28.20;71.80;;;;;;5031537;28;20379;-71
2022/08/21 14:20:08;;;;;;;;;;;27.90;72.30;;;;;;5031313;28;20007;-71
2022/08/21 14:22:34;;;;;;;;;;;27.60;73.40;;;;;;5031510;28;19928;-71